Time;durP1;ratioP1;P1;durP2;ratioP2;P2;SDS_P1;SDS_P2;PMS_P1;PMS_P2;Temp;Humidity;BMP_temperature;BMP_pressure;BME280_temperature;BME280_humidity;BME280_pressure;Samples;Min_cycle;Max_cycle;Signal;HPM_P1;HPM_P2
2022/06/10 00:01:11;;;;;;;14.70;3.35;;;12.60;99.90;;;;;;5017859;28;145972;-72
2022/06/10 00:03:37;;;;;;;13.83;3.03;;;12.50;99.90;;;;;;4975828;28;222083;-71
2022/06/10 00:06:06;;;;;;;15.25;3.25;;;12.50;99.90;;;;;;4958174;28;148233;-71
2022/06/10 00:08:36;;;;;;;14.40;3.45;;;12.50;99.90;;;;;;4955121;28;226260;-71
2022/06/10 00:11:04;;;;;;;13.27;3.35;;;12.50;99.90;;;;;;5008164;28;78177;-72
2022/06/10 00:13:34;;;;;;;16.17;3.55;;;12.50;99.90;;;;;;4979247;28;212463;-71
2022/06/10 00:16:00;;;;;;;13.75;3.20;;;12.50;99.90;;;;;;5007945;28;20054;-72
2022/06/10 00:18:29;;;;;;;15.50;3.35;;;12.40;99.90;;;;;;5005018;28;209843;-72
2022/06/10 00:20:56;;;;;;;16.05;3.95;;;12.40;99.90;;;;;;4947669;28;244082;-72
2022/06/10 00:23:23;;;;;;;13.75;3.63;;;12.40;99.90;;;;;;5020973;28;20189;-71
2022/06/10 00:25:49;;;;;;;16.23;3.70;;;12.40;99.90;;;;;;4946650;28;180851;-72
2022/06/10 00:28:16;;;;;;;18.83;3.50;;;12.40;99.90;;;;;;5020349;28;20060;-72
2022/06/10 00:30:42;;;;;;;17.23;3.63;;;12.40;99.90;;;;;;4938485;28;273741;-72
2022/06/10 00:33:09;;;;;;;13.40;3.50;;;12.30;99.90;;;;;;5016872;28;20041;-72
2022/06/10 00:35:35;;;;;;;15.50;3.70;;;12.30;99.90;;;;;;4955825;28;210943;-72
2022/06/10 00:38:02;;;;;;;16.75;3.70;;;12.30;99.90;;;;;;5025751;28;20554;-72
2022/06/10 00:40:33;;;;;;;14.90;3.80;;;12.20;99.90;;;;;;4955624;28;211578;-71
2022/06/10 00:42:59;;;;;;;13.60;3.80;;;12.20;99.90;;;;;;5016476;28;20109;-72
2022/06/10 00:45:47;;;;;;;14.40;3.72;;;12.20;99.90;;;;;;4955642;28;227875;-72
2022/06/10 00:48:17;;;;;;;16.02;3.80;;;12.20;99.90;;;;;;5014130;28;20053;-71
2022/06/10 00:50:44;;;;;;;14.63;3.93;;;12.20;99.90;;;;;;4944756;28;230853;-71
2022/06/10 00:53:14;;;;;;;12.23;3.60;;;12.20;99.90;;;;;;5018390;28;20061;-71
2022/06/10 00:55:42;;;;;;;13.32;3.80;;;12.20;99.90;;;;;;4945686;28;233157;-71
2022/06/10 00:58:23;;;;;;;16.25;4.30;;;12.10;99.90;;;;;;5021892;28;20518;-71
2022/06/10 01:00:50;;;;;;;14.13;4.13;;;12.10;99.90;;;;;;4951828;28;207141;-71
2022/06/10 01:03:16;;;;;;;14.75;4.10;;;12.00;99.90;;;;;;5018198;28;20495;-71
2022/06/10 01:05:42;;;;;;;13.65;4.20;;;12.00;99.90;;;;;;4928801;28;205848;-72
2022/06/10 01:08:11;;;;;;;15.13;4.05;;;12.00;99.90;;;;;;5018659;28;20148;-71
2022/06/10 01:11:22;;;;;;;15.88;4.18;;;12.10;99.90;;;;;;4933463;28;205288;-71
2022/06/10 01:14:20;;;;;;;13.05;3.90;;;12.00;99.90;;;;;;4982073;28;136698;-71
2022/06/10 01:17:07;;;;;;;14.23;4.18;;;12.00;99.90;;;;;;4997214;28;20044;-71
2022/06/10 01:19:51;;;;;;;14.25;3.65;;;12.00;99.90;;;;;;4972475;28;135294;-71
2022/06/10 01:22:39;;;;;;;12.57;3.65;;;12.00;99.90;;;;;;5016243;28;20045;-70
2022/06/10 01:25:25;;;;;;;14.43;4.30;;;12.00;99.90;;;;;;4940484;28;254716;-71
2022/06/10 01:27:57;;;;;;;16.77;3.95;;;12.00;99.90;;;;;;5023986;28;20195;-71
2022/06/10 01:30:54;;;;;;;18.25;4.07;;;11.90;99.90;;;;;;4959665;28;205638;-71
2022/06/10 01:33:41;;;;;;;18.60;4.28;;;11.90;99.90;;;;;;5019176;28;20060;-71
2022/06/10 01:36:37;;;;;;;13.10;4.00;;;11.90;99.90;;;;;;4927145;28;216330;-72
2022/06/10 01:39:15;;;;;;;13.43;3.90;;;11.90;99.90;;;;;;4958050;28;175038;-71
2022/06/10 01:41:56;;;;;;;13.10;3.97;;;11.90;99.90;;;;;;5019466;28;20057;-72
2022/06/10 01:44:28;;;;;;;;;;;11.90;99.90;;;;;;4949785;28;205531;-72
2022/06/10 01:47:29;;;;;;;12.40;3.60;;;11.90;99.90;;;;;;5013986;28;20297;-72
2022/06/10 01:50:04;;;;;;;13.23;3.88;;;11.80;99.90;;;;;;4958636;28;206503;-72
2022/06/10 01:52:45;;;;;;;15.60;4.03;;;11.80;99.90;;;;;;5011222;28;20060;-71
2022/06/10 01:55:36;;;;;;;16.08;3.90;;;11.80;99.90;;;;;;4943697;28;243105;-71
2022/06/10 01:58:11;;;;;;;18.10;3.63;;;11.80;99.90;;;;;;5015269;28;20061;-71
2022/06/10 02:00:43;;;;;;;16.23;3.67;;;11.80;99.90;;;;;;4962275;28;205726;-71
2022/06/10 02:03:21;;;;;;;15.93;4.07;;;11.70;99.90;;;;;;5024050;28;20387;-72
2022/06/10 02:06:38;;;;;;;11.63;3.63;;;11.80;99.90;;;;;;4944145;28;173249;-71
2022/06/10 02:09:11;;;;;;;15.18;4.00;;;11.70;99.90;;;;;;4904215;28;209658;-72
2022/06/10 02:11:43;;;;;;;13.02;3.75;;;11.70;99.90;;;;;;4958689;28;20046;-72
2022/06/10 02:14:15;;;;;;;14.00;3.88;;;11.70;99.90;;;;;;4895397;28;205396;-72
2022/06/10 02:16:45;;;;;;;14.20;3.65;;;11.60;99.90;;;;;;4948393;28;20442;-71
2022/06/10 02:19:21;;;;;;;18.13;3.70;;;11.60;99.90;;;;;;4874951;28;208833;-72
2022/06/10 02:21:51;;;;;;;13.93;3.75;;;11.60;99.90;;;;;;4960146;28;20058;-71
2022/06/10 02:24:18;;;;;;;15.90;3.75;;;11.60;99.90;;;;;;4891084;28;208949;-72
2022/06/10 02:26:47;;;;;;;14.70;3.80;;;11.60;99.90;;;;;;4952681;28;20080;-72
2022/06/10 02:29:20;;;;;;;17.98;3.80;;;11.60;99.90;;;;;;4904157;28;220545;-72
2022/06/10 02:31:54;;;;;;;16.80;4.18;;;11.60;99.90;;;;;;4967265;28;20435;-72
2022/06/10 02:34:20;;;;;;;14.30;3.65;;;11.50;99.90;;;;;;4914833;28;211391;-71
2022/06/10 02:37:07;;;;;;;16.02;3.80;;;11.60;99.90;;;;;;4953464;28;20051;-71
2022/06/10 02:39:57;;;;;;;13.15;3.75;;;11.50;99.90;;;;;;4895600;28;222511;-72
2022/06/10 02:42:37;;;;;;;14.52;3.90;;;11.50;99.90;;;;;;4964118;28;20512;-72
2022/06/10 02:45:15;;;;;;;15.75;3.50;;;11.50;99.90;;;;;;4928786;28;210220;-72
2022/06/10 02:47:49;;;;;;;13.38;3.80;;;11.40;99.90;;;;;;5018539;28;20548;-72
2022/06/10 02:50:16;;;;;;;12.35;3.58;;;11.40;99.90;;;;;;4969196;28;207055;-72
2022/06/10 02:52:43;;;;;;;16.58;4.00;;;11.40;99.90;;;;;;5012520;28;20076;-71
2022/06/10 02:55:19;;;;;;;11.85;3.42;;;11.40;99.90;;;;;;4963767;28;220689;-72
2022/06/10 03:01:26;;;;;;;14.80;3.45;;;11.40;99.90;;;;;;4966207;28;211852;-74
2022/06/10 03:03:42;;;;;;;14.98;3.55;;;11.40;99.90;;;;;;5002415;28;214452;-73
2022/06/10 03:06:32;;;;;;;16.60;4.07;;;11.40;99.90;;;;;;4927360;28;207306;-72
2022/06/10 03:09:12;;;;;;;17.73;3.75;;;11.40;99.90;;;;;;4980326;28;206959;-72
2022/06/10 03:11:57;;;;;;;15.85;4.00;;;11.40;99.90;;;;;;4996710;28;20041;-72
2022/06/10 03:15:00;;;;;;;14.38;3.80;;;11.40;99.90;;;;;;4970413;28;205740;-72
2022/06/10 03:17:50;;;;;;;12.43;3.47;;;11.40;99.90;;;;;;4926635;28;20055;-72
2022/06/10 03:20:27;;;;;;;17.42;4.03;;;11.40;99.90;;;;;;4870290;28;197249;-72
2022/06/10 03:23:02;;;;;;;14.32;4.05;;;11.40;99.90;;;;;;4960388;28;20047;-73
2022/06/10 03:25:32;;;;;;;13.40;3.85;;;11.40;99.90;;;;;;4888636;28;210782;-71
2022/06/10 03:28:12;;;;;;;14.93;3.72;;;11.40;99.90;;;;;;4945314;28;20610;-71
2022/06/10 03:30:53;;;;;;;15.98;4.40;;;11.40;99.90;;;;;;4886769;28;209259;-71
2022/06/10 03:34:04;;;;;;;11.30;4.05;;;11.40;99.90;;;;;;4959658;28;20066;-72
2022/06/10 03:36:32;;;;;;;11.35;3.58;;;11.40;99.90;;;;;;4861979;29;141529;-71
2022/06/10 03:38:59;;;;;;;12.55;3.70;;;11.40;99.90;;;;;;4861572;29;212321;-71
2022/06/10 03:41:33;;;;;;;15.43;4.00;;;11.40;99.90;;;;;;4886477;29;242217;-72
2022/06/10 03:44:02;;;;;;;15.60;3.72;;;11.40;99.90;;;;;;4868325;29;128281;-71
2022/06/10 03:46:31;;;;;;;14.00;3.72;;;11.40;99.90;;;;;;4900954;29;20070;-72
2022/06/10 03:49:06;;;;;;;13.43;3.80;;;11.40;99.90;;;;;;4865946;29;217456;-72
2022/06/10 03:51:33;;;;;;;14.68;3.83;;;11.50;99.90;;;;;;4905601;29;20434;-72
2022/06/10 03:53:59;;;;;;;15.70;3.70;;;11.40;99.90;;;;;;4888608;28;207290;-72
2022/06/10 03:56:25;;;;;;;19.70;4.07;;;11.50;99.90;;;;;;4942026;28;170905;-71
2022/06/10 03:58:52;;;;;;;18.80;4.20;;;11.50;99.90;;;;;;4912370;28;207213;-71
2022/06/10 04:01:18;;;;;;;17.35;3.95;;;11.60;99.90;;;;;;4941809;28;70297;-71
2022/06/10 04:03:44;;;;;;;15.73;3.70;;;11.60;99.90;;;;;;4918976;28;207006;-72
2022/06/10 04:06:11;;;;;;;17.60;3.83;;;11.60;99.90;;;;;;4931514;28;204232;-71
2022/06/10 04:08:37;;;;;;;19.20;3.92;;;11.70;99.90;;;;;;4996594;28;235829;-73
2022/06/10 04:11:04;;;;;;;13.02;3.53;;;11.70;99.90;;;;;;5021889;28;168204;-70
2022/06/10 04:13:30;;;;;;;16.98;3.85;;;11.80;99.90;;;;;;4981995;28;212509;-70
2022/06/10 04:15:56;;;;;;;21.23;3.78;;;11.80;99.90;;;;;;5011354;28;183406;-71
2022/06/10 04:18:22;;;;;;;14.73;3.97;;;11.90;99.90;;;;;;5000750;28;20946;-72
2022/06/10 04:20:48;;;;;;;17.55;4.15;;;11.90;99.90;;;;;;4934239;28;241968;-72
2022/06/10 04:23:15;;;;;;;15.68;3.75;;;12.00;99.90;;;;;;5012603;28;20084;-71
2022/06/10 04:25:43;;;;;;;15.60;3.80;;;12.10;99.90;;;;;;4944065;28;213147;-71
2022/06/10 04:28:11;;;;;;;12.23;3.42;;;12.20;99.90;;;;;;5020287;28;20053;-71
2022/06/10 04:30:43;;;;;;;15.45;3.28;;;12.20;99.90;;;;;;4952712;28;245979;-71
2022/06/10 04:33:10;;;;;;;15.77;3.08;;;12.30;99.90;;;;;;5039480;28;20053;-72
2022/06/10 04:35:39;;;;;;;12.77;3.28;;;12.30;99.90;;;;;;4968317;28;216078;-72
2022/06/10 04:38:07;;;;;;;15.25;3.50;;;12.40;99.90;;;;;;5024107;28;20499;-72
2022/06/10 04:40:36;;;;;;;14.65;3.42;;;12.50;99.90;;;;;;4941128;28;205775;-71
2022/06/10 04:43:03;;;;;;;16.13;3.58;;;12.60;99.90;;;;;;5027764;28;20045;-71
2022/06/10 04:45:41;;;;;;;16.20;3.33;;;12.70;99.90;;;;;;4956210;28;208151;-71
2022/06/10 04:48:07;;;;;;;14.38;3.50;;;12.70;99.90;;;;;;5022383;28;20068;-72
2022/06/10 04:50:33;;;;;;;14.40;3.53;;;12.90;99.90;;;;;;4954573;28;207722;-72
2022/06/10 04:52:59;;;;;;;16.95;3.58;;;12.90;99.90;;;;;;5023828;28;20045;-71
2022/06/10 04:55:27;;;;;;;19.05;4.10;;;13.00;99.90;;;;;;4951516;28;206640;-72
2022/06/10 04:57:54;;;;;;;14.63;3.35;;;13.10;99.90;;;;;;5015388;28;20049;-72
2022/06/10 05:00:24;;;;;;;13.88;3.30;;;13.30;99.90;;;;;;4951565;28;180571;-72
2022/06/10 05:02:51;;;;;;;15.93;3.90;;;13.40;99.90;;;;;;5026803;28;20515;-72
2022/06/10 05:05:17;;;;;;;12.73;3.40;;;13.50;99.90;;;;;;4956473;28;233867;-71
2022/06/10 05:07:43;;;;;;;14.27;3.60;;;13.60;99.90;;;;;;5020026;28;20529;-71
2022/06/10 05:10:15;;;;;;;13.20;3.55;;;13.80;99.90;;;;;;4946520;28;212104;-72
2022/06/10 05:12:44;;;;;;;16.55;3.35;;;13.90;99.90;;;;;;5023338;28;20518;-72
2022/06/10 05:15:15;;;;;;;19.00;3.45;;;14.10;99.90;;;;;;4965969;28;202605;-72
2022/06/10 05:17:42;;;;;;;;;;;14.20;99.90;;;;;;5012671;28;20045;-72
2022/06/10 05:20:14;;;;;;;14.70;3.50;;;14.30;99.90;;;;;;4956726;28;153554;-73
2022/06/10 05:22:40;;;;;;;20.20;3.40;;;14.30;99.90;;;;;;5021276;28;20151;-73
2022/06/10 05:25:07;;;;;;;14.45;3.85;;;14.40;99.90;;;;;;4947395;28;169164;-72
2022/06/10 05:27:34;;;;;;;15.93;3.60;;;14.50;99.90;;;;;;5018102;28;20056;-72
2022/06/10 05:30:00;;;;;;;16.15;3.22;;;14.50;99.90;;;;;;4972760;28;211502;-72
2022/06/10 05:32:26;;;;;;;20.45;3.58;;;14.50;99.90;;;;;;5011956;28;20065;-72
2022/06/10 05:34:53;;;;;;;19.17;3.78;;;14.60;99.90;;;;;;4964121;28;206327;-72
2022/06/10 05:37:25;;;;;;;13.73;3.25;;;14.70;99.90;;;;;;5012596;28;20069;-71
2022/06/10 05:39:52;;;;;;;18.60;3.70;;;14.70;99.90;;;;;;4947982;28;246057;-71
2022/06/10 05:42:18;;;;;;;15.48;3.67;;;14.70;99.90;;;;;;5005073;28;20495;-72
2022/06/10 05:44:46;;;;;;;17.23;3.30;;;14.70;99.90;;;;;;4946471;28;208413;-71
2022/06/10 05:47:19;;;;;;;14.43;3.03;;;14.70;99.90;;;;;;5015685;28;20508;-71
2022/06/10 05:49:47;;;;;;;13.25;3.15;;;14.70;99.90;;;;;;4953465;28;218608;-71
2022/06/10 05:52:16;;;;;;;15.50;3.70;;;14.80;99.90;;;;;;5008998;28;20069;-72
2022/06/10 05:54:45;;;;;;;18.75;4.07;;;14.80;99.90;;;;;;4955381;28;214249;-72
2022/06/10 05:57:13;;;;;;;15.95;3.35;;;14.90;99.90;;;;;;4998325;28;20505;-72
2022/06/10 05:59:39;;;;;;;14.85;3.50;;;15.00;99.90;;;;;;4949203;28;233646;-70
2022/06/10 06:02:08;;;;;;;16.67;3.88;;;15.10;99.90;;;;;;4996348;28;20085;-71
2022/06/10 06:04:34;;;;;;;13.40;3.28;;;15.10;99.90;;;;;;4964491;28;220217;-71
2022/06/10 06:07:01;;;;;;;15.45;3.47;;;15.10;99.90;;;;;;5033386;28;20056;-73
2022/06/10 06:09:27;;;;;;;15.13;3.53;;;15.10;99.90;;;;;;4974080;28;210911;-71
2022/06/10 06:11:57;;;;;;;16.02;3.50;;;15.10;99.90;;;;;;5037705;28;20060;-71
2022/06/10 06:14:26;;;;;;;15.25;3.28;;;15.20;99.90;;;;;;4970467;28;215998;-71
2022/06/10 06:16:55;;;;;;;12.23;3.35;;;15.20;99.90;;;;;;5004740;28;20053;-71
2022/06/10 06:19:22;;;;;;;13.45;3.38;;;15.10;99.90;;;;;;4966080;28;219563;-72
2022/06/10 06:21:48;;;;;;;21.52;3.55;;;15.10;99.90;;;;;;5016864;28;20058;-73
2022/06/10 06:24:15;;;;;;;14.40;3.00;;;15.20;99.90;;;;;;4963125;28;206496;-71
2022/06/10 06:26:41;;;;;;;12.07;3.05;;;15.20;99.90;;;;;;5014519;28;20454;-71
2022/06/10 06:29:07;;;;;;;15.27;3.38;;;15.20;99.90;;;;;;4956098;28;212704;-71
2022/06/10 06:31:35;;;;;;;12.52;3.35;;;15.20;99.90;;;;;;5026897;28;20057;-71
2022/06/10 06:34:01;;;;;;;16.02;3.63;;;15.20;99.90;;;;;;4973619;28;206001;-71
2022/06/10 06:36:28;;;;;;;16.73;3.50;;;15.30;99.90;;;;;;4999229;28;267423;-71
2022/06/10 06:38:54;;;;;;;15.65;3.53;;;15.30;99.90;;;;;;4977719;28;172001;-70
2022/06/10 06:41:22;;;;;;;15.73;3.42;;;15.40;99.90;;;;;;5004581;28;92738;-71
2022/06/10 06:43:49;;;;;;;14.25;3.45;;;15.50;99.90;;;;;;4970619;28;213424;-71
2022/06/10 06:46:17;;;;;;;13.68;3.33;;;15.50;99.90;;;;;;4993696;28;20411;-71
2022/06/10 06:48:44;;;;;;;16.80;3.50;;;15.50;99.90;;;;;;4973946;28;215125;-71
2022/06/10 06:51:10;;;;;;;13.77;3.58;;;15.60;99.90;;;;;;5001728;28;220860;-71
2022/06/10 06:53:37;;;;;;;15.75;3.83;;;15.70;99.90;;;;;;4972070;28;214838;-71
2022/06/10 06:56:04;;;;;;;14.85;4.30;;;15.80;99.90;;;;;;4989168;28;73082;-71
2022/06/10 06:58:31;;;;;;;19.98;4.45;;;16.00;99.90;;;;;;4957001;28;211947;-70
2022/06/10 07:00:58;;;;;;;19.50;4.60;;;16.00;99.90;;;;;;4982525;28;144021;-71
2022/06/10 07:03:25;;;;;;;18.00;5.00;;;16.10;99.90;;;;;;5022036;28;20049;-71
2022/06/10 07:05:52;;;;;;;19.40;4.93;;;16.20;99.90;;;;;;4919535;28;136895;-72
2022/06/10 07:08:19;;;;;;;18.27;5.25;;;16.30;99.90;;;;;;5021701;28;20060;-71
2022/06/10 07:10:45;;;;;;;14.10;4.35;;;16.50;99.90;;;;;;4948167;28;207302;-71
2022/06/10 07:13:12;;;;;;;16.50;5.13;;;16.50;99.90;;;;;;5020769;28;20054;-71
2022/06/10 07:15:41;;;;;;;14.85;4.60;;;16.50;99.90;;;;;;4958388;28;209455;-71
2022/06/10 07:18:08;;;;;;;14.45;4.63;;;16.50;99.90;;;;;;5026724;28;20041;-72
2022/06/10 07:20:36;;;;;;;16.48;5.00;;;16.60;99.90;;;;;;4977144;28;208361;-72
2022/06/10 07:23:03;;;;;;;16.27;4.97;;;16.60;99.90;;;;;;5021144;28;20125;-72
2022/06/10 07:25:31;;;;;;;18.63;5.35;;;16.60;99.90;;;;;;4957492;28;201239;-72
2022/06/10 07:27:58;;;;;;;15.80;5.07;;;16.50;99.90;;;;;;5030225;28;20084;-71
2022/06/10 07:30:27;;;;;;;16.58;5.10;;;16.50;99.90;;;;;;4976894;28;230831;-72
2022/06/10 07:32:54;;;;;;;17.60;5.45;;;16.50;99.90;;;;;;5017717;28;20046;-72
2022/06/10 07:35:21;;;;;;;14.50;4.97;;;16.50;99.90;;;;;;4970868;28;218523;-72
2022/06/10 07:37:48;;;;;;;16.27;4.88;;;16.50;99.90;;;;;;5021371;28;20046;-71
2022/06/10 07:43:05;;;;;;;16.45;4.70;;;16.50;99.90;;;;;;5017146;28;20056;-72
2022/06/10 07:45:32;;;;;;;15.77;5.07;;;16.70;99.90;;;;;;4959195;28;215439;-72
2022/06/10 07:47:58;;;;;;;16.20;4.88;;;16.70;99.90;;;;;;5022272;28;20057;-72
2022/06/10 07:50:25;;;;;;;14.07;4.57;;;16.80;99.90;;;;;;4970796;28;254957;-72
2022/06/10 07:52:51;;;;;;;17.42;4.43;;;17.00;99.90;;;;;;5020208;28;20410;-72
2022/06/10 07:55:19;;;;;;;20.45;4.32;;;17.00;99.90;;;;;;4961888;28;193880;-72
2022/06/10 07:57:45;;;;;;;17.55;4.53;;;17.00;99.90;;;;;;5014114;28;20049;-72
2022/06/10 08:00:13;;;;;;;13.32;3.90;;;17.00;99.90;;;;;;4948121;28;206332;-72
2022/06/10 08:02:40;;;;;;;16.45;4.30;;;17.00;99.90;;;;;;5019854;28;20053;-73
2022/06/10 08:05:08;;;;;;;15.70;4.38;;;17.00;99.90;;;;;;4950154;28;212644;-71
2022/06/10 08:07:37;;;;;;;16.77;4.57;;;17.00;99.90;;;;;;5017262;28;20380;-72
2022/06/10 08:10:14;;;;;;;18.98;4.53;;;17.10;99.90;;;;;;4944182;28;213354;-71
2022/06/10 08:12:40;;;;;;;17.13;4.55;;;17.10;99.90;;;;;;5028936;28;20442;-71
2022/06/10 08:15:06;;;;;;;19.08;4.90;;;17.20;99.90;;;;;;4951380;28;209923;-71
2022/06/10 08:17:33;;;;;;;13.55;4.60;;;17.30;99.90;;;;;;5021201;28;20053;-72
2022/06/10 08:20:01;;;;;;;15.55;4.22;;;17.40;99.90;;;;;;4971077;28;221992;-72
2022/06/10 08:22:34;;;;;;;16.42;4.60;;;17.40;99.90;;;;;;5017068;28;20072;-72
2022/06/10 08:25:01;;;;;;;15.32;4.90;;;17.40;99.90;;;;;;4957819;28;206046;-72
2022/06/10 08:27:28;;;;;;;16.50;4.75;;;17.40;99.90;;;;;;5031097;28;20065;-71
2022/06/10 08:29:55;;;;;;;16.40;4.60;;;17.30;99.90;;;;;;4936589;28;208175;-71
2022/06/10 08:32:22;;;;;;;21.08;4.82;;;17.20;99.90;;;;;;5015315;28;20046;-72
2022/06/10 08:34:48;;;;;;;16.83;4.72;;;17.20;99.90;;;;;;4958339;28;213442;-71
2022/06/10 08:37:15;;;;;;;17.38;4.72;;;17.20;99.90;;;;;;5023724;28;20057;-70
2022/06/10 08:39:41;;;;;;;21.98;5.50;;;17.20;99.90;;;;;;4963911;28;209126;-71
2022/06/10 08:42:07;;;;;;;17.42;4.53;;;17.30;99.90;;;;;;5016717;28;20056;-71
2022/06/10 08:44:53;;;;;;;19.50;5.15;;;17.30;99.90;;;;;;4959782;28;211017;-71
2022/06/10 08:47:39;;;;;;;17.20;4.47;;;17.60;99.90;;;;;;5013886;28;20062;-71
2022/06/10 08:50:32;;;;;;;11.55;4.38;;;17.80;99.90;;;;;;4963128;28;207328;-72
2022/06/10 08:53:31;;;;;;;16.48;4.18;;;18.00;99.90;;;;;;5009048;28;20054;-72
2022/06/10 08:56:14;;;;;;;20.13;4.65;;;18.00;99.90;;;;;;4960776;28;220209;-71
2022/06/10 08:58:42;;;;;;;15.23;4.40;;;18.10;99.90;;;;;;4973527;28;213056;-71
2022/06/10 09:01:18;;;;;;;14.23;3.75;;;18.30;99.90;;;;;;5014122;28;168232;-72
2022/06/10 09:04:05;;;;;;;15.60;4.03;;;18.50;99.90;;;;;;4972620;28;210100;-72
2022/06/10 09:06:43;;;;;;;14.40;3.60;;;18.50;99.90;;;;;;4985873;28;146678;-71
2022/06/10 09:09:12;;;;;;;20.52;4.00;;;18.50;99.90;;;;;;4959947;28;210365;-73
2022/06/10 09:11:43;;;;;;;14.25;3.58;;;18.50;99.90;;;;;;4987109;28;20054;-71
2022/06/10 09:14:22;;;;;;;14.00;4.00;;;18.50;99.90;;;;;;4962493;28;213887;-72
2022/06/10 09:16:51;;;;;;;18.58;4.20;;;18.50;99.90;;;;;;5013183;28;20050;-72
2022/06/10 09:19:26;;;;;;;18.33;4.40;;;18.50;99.90;;;;;;4961315;28;208185;-72
2022/06/10 09:22:22;;;;;;;18.25;4.72;;;18.50;99.90;;;;;;5018935;28;20061;-73
2022/06/10 09:24:55;;;;;;;14.82;4.03;;;18.40;99.90;;;;;;4968327;28;210585;-72
2022/06/10 09:27:39;;;;;;;15.88;3.80;;;18.40;99.90;;;;;;5023647;28;20900;-71
2022/06/10 09:30:12;;;;;;;19.65;3.97;;;18.40;99.90;;;;;;4945005;28;224821;-71
2022/06/10 09:32:59;;;;;;;15.60;3.60;;;18.30;99.90;;;;;;5017536;28;20187;-72
2022/06/10 09:35:40;;;;;;;12.48;3.53;;;18.20;99.90;;;;;;4984932;28;219018;-72
2022/06/10 09:38:10;;;;;;;;;;;18.10;99.90;;;;;;5019488;28;20463;-70
2022/06/10 09:41:04;;;;;;;14.55;3.50;;;18.00;99.90;;;;;;4937508;28;212309;-71
2022/06/10 09:43:56;;;;;;;14.68;3.83;;;18.10;99.90;;;;;;4964965;28;202874;-70
2022/06/10 09:46:43;;;;;;;14.15;4.05;;;18.10;99.90;;;;;;4979596;28;172912;-70
2022/06/10 09:49:20;;;;;;;16.60;4.10;;;18.20;99.90;;;;;;4928159;28;252895;-71
2022/06/10 09:51:58;;;;;;;13.13;3.60;;;18.50;99.90;;;;;;4981284;28;20467;-70
2022/06/10 09:55:01;;;;;;;16.42;4.18;;;19.10;99.90;;;;;;4915856;28;275792;-72
2022/06/10 09:57:37;;;;;;;15.93;4.13;;;19.40;99.90;;;;;;4974469;28;20062;-71
2022/06/10 10:00:34;;;;;;;18.45;4.15;;;19.60;99.90;;;;;;4918595;28;248396;-72
2022/06/10 10:03:23;;;;;;;13.05;3.63;;;19.50;99.90;;;;;;4967741;28;20060;-71
2022/06/10 10:05:57;;;;;;;15.48;3.95;;;19.40;99.90;;;;;;4836934;28;275603;-71
2022/06/10 10:08:57;;;;;;;14.68;3.80;;;19.40;99.90;;;;;;4941697;28;20208;-72
2022/06/10 10:11:23;;;;;;;15.27;3.90;;;19.30;99.90;;;;;;4878780;28;162499;-72
2022/06/10 10:14:30;;;;;;;13.98;3.83;;;19.30;99.90;;;;;;4909089;28;208401;-71
2022/06/10 10:17:33;;;;;;;14.20;3.50;;;19.60;99.90;;;;;;4858418;29;20056;-72
2022/06/10 10:20:23;;;;;;;14.95;3.22;;;19.90;99.90;;;;;;4826531;29;207202;-72
2022/06/10 10:23:13;;;;;;;16.77;4.25;;;20.00;99.90;;;;;;4877019;29;20056;-71
2022/06/10 10:25:42;;;;;;;13.07;3.63;;;20.10;99.90;;;;;;4809349;29;207333;-72
2022/06/10 10:28:19;;;;;;;12.52;3.20;;;20.10;99.90;;;;;;4864742;29;20053;-71
2022/06/10 10:31:09;;;;;;;12.82;3.53;;;20.00;99.90;;;;;;4819701;29;209086;-71
2022/06/10 10:33:35;;;;;;;14.02;3.90;;;20.00;99.90;;;;;;4836933;29;206026;-72
2022/06/10 10:36:05;;;;;;;12.57;3.33;;;19.90;99.90;;;;;;4849973;29;208634;-71
2022/06/10 10:38:37;;;;;;;11.93;3.40;;;20.00;99.90;;;;;;4833662;29;207072;-71
2022/06/10 10:41:17;;;;;;;14.27;3.38;;;20.20;99.90;;;;;;4849099;29;197092;-71
2022/06/10 10:43:48;;;;;;;12.75;3.22;;;20.30;99.90;;;;;;4893882;28;207624;-71
2022/06/10 10:46:33;;;;;;;15.57;3.60;;;20.40;99.90;;;;;;4932545;28;256467;-71
2022/06/10 10:49:01;;;;;;;13.63;3.38;;;20.30;99.90;;;;;;4898575;28;206393;-71
2022/06/10 10:51:38;;;;;;;13.23;3.50;;;20.10;99.90;;;;;;4971161;28;20064;-71
2022/06/10 10:54:16;;;;;;;12.98;3.22;;;20.00;99.90;;;;;;4964314;28;211412;-71
2022/06/10 10:56:47;;;;;;;11.68;3.10;;;19.90;99.90;;;;;;5024224;28;20435;-72
2022/06/10 10:59:38;;;;;;;15.07;3.50;;;19.60;99.90;;;;;;4958462;28;216060;-71
2022/06/10 11:02:25;;;;;;;13.38;3.20;;;19.60;99.90;;;;;;4929753;28;20805;-71
2022/06/10 11:04:51;;;;;;;14.35;3.25;;;19.60;99.90;;;;;;4855892;28;231204;-71
2022/06/10 11:07:21;;;;;;;10.90;3.00;;;19.60;99.90;;;;;;4931296;28;20059;-72
2022/06/10 11:09:53;;;;;;;15.07;3.65;;;19.70;99.90;;;;;;4841644;29;206891;-71
2022/06/10 11:12:25;;;;;;;12.90;3.25;;;19.80;99.90;;;;;;4925232;28;20083;-71
2022/06/10 11:15:03;;;;;;;14.93;3.65;;;20.10;99.90;;;;;;4869038;28;209917;-72
2022/06/10 11:17:31;;;;;;;13.70;3.25;;;20.50;99.90;;;;;;4932903;28;20078;-72
2022/06/10 11:20:33;;;;;;;11.73;3.00;;;20.60;99.90;;;;;;4860161;28;237112;-73
2022/06/10 11:23:10;;;;;;;13.60;3.67;;;20.70;99.90;;;;;;4880832;29;20511;-72
2022/06/10 11:25:36;;;;;;;15.50;3.45;;;20.50;99.90;;;;;;4820232;29;214991;-71
2022/06/10 11:28:19;;;;;;;12.50;2.92;;;20.30;99.90;;;;;;4886564;29;20044;-71
2022/06/10 11:30:49;;;;;;;15.90;3.40;;;20.30;99.90;;;;;;4827479;29;245112;-72
2022/06/10 11:33:27;;;;;;;12.20;2.93;;;20.30;99.90;;;;;;4870683;29;20901;-71
2022/06/10 11:36:04;;;;;;;12.88;3.17;;;20.50;99.90;;;;;;4828290;29;206301;-72
2022/06/10 11:38:32;;;;;;;13.98;3.08;;;20.60;99.90;;;;;;4856669;28;207234;-72
2022/06/10 11:41:14;;;;;;;15.30;3.40;;;20.80;99.90;;;;;;4937311;28;160480;-71
2022/06/10 11:43:47;;;;;;;12.85;2.90;;;20.90;99.90;;;;;;4909007;28;216338;-72
2022/06/10 11:46:31;;;;;;;15.80;3.38;;;21.00;99.90;;;;;;4931201;28;151843;-72
2022/06/10 11:49:16;;;;;;;14.68;3.25;;;21.20;99.90;;;;;;4898641;28;209405;-71
2022/06/10 11:51:47;;;;;;;13.50;3.47;;;21.20;99.90;;;;;;4925725;28;20424;-72
2022/06/10 11:54:37;;;;;;;15.93;3.22;;;21.20;99.90;;;;;;4885232;28;242547;-70
2022/06/10 12:00:43;;;;;;;14.73;3.50;;;21.30;99.90;;;;;;4959718;28;213430;-71
2022/06/10 12:03:30;;;;;;;15.68;3.13;;;21.30;99.90;;;;;;5024740;28;20045;-71
2022/06/10 12:06:19;;;;;;;16.33;3.45;;;21.20;99.90;;;;;;4947433;28;206402;-72
2022/06/10 12:08:57;;;;;;;13.95;2.88;;;21.40;99.90;;;;;;4992745;28;212545;-72
2022/06/10 12:11:29;;;;;;;13.63;3.28;;;21.50;99.90;;;;;;5030052;28;37554;-70
2022/06/10 12:14:13;;;;;;;18.95;3.47;;;21.50;99.90;;;;;;4982273;28;207244;-71
2022/06/10 12:16:41;;;;;;;14.63;3.17;;;21.70;99.90;;;;;;4987224;28;20079;-72
2022/06/10 12:19:25;;;;;;;14.30;3.00;;;21.70;99.90;;;;;;4959280;28;209685;-71
2022/06/10 12:21:51;;;;;;;11.82;3.30;;;21.70;99.90;;;;;;5019290;28;20065;-71
2022/06/10 12:24:20;;;;;;;12.90;2.72;;;21.80;99.90;;;;;;4972558;28;206787;-71
2022/06/10 12:26:49;;;;;;;14.13;3.10;;;21.90;99.90;;;;;;5011017;28;20289;-71
2022/06/10 12:29:38;;;;;;;10.65;2.53;;;22.00;99.90;;;;;;4972592;28;208556;-72
2022/06/10 12:32:44;;;;;;;11.85;2.33;;;21.90;99.90;;;;;;5033508;28;20431;-72
2022/06/10 12:35:25;;;;;;;11.80;2.65;;;21.90;99.90;;;;;;4888260;28;206804;-72
2022/06/10 12:37:59;;;;;;;12.73;2.80;;;21.80;99.90;;;;;;4966992;28;20042;-72
2022/06/10 12:40:34;;;;;;;12.95;2.88;;;21.90;99.90;;;;;;4896806;28;206617;-71
2022/06/10 12:43:18;;;;;;;11.63;2.80;;;21.70;99.90;;;;;;4961245;28;20046;-72
2022/06/10 12:45:52;;;;;;;17.20;3.00;;;21.70;99.90;;;;;;4863240;28;253558;-72
2022/06/10 12:48:25;;;;;;;11.43;2.65;;;21.80;99.90;;;;;;4963075;28;20095;-71
2022/06/10 12:51:01;;;;;;;14.02;2.92;;;22.00;99.90;;;;;;4872050;28;151922;-73
2022/06/10 12:53:41;;;;;;;13.25;3.00;;;21.90;99.90;;;;;;4925863;28;188838;-71
2022/06/10 12:56:18;;;;;;;13.00;2.92;;;22.00;99.90;;;;;;4881232;28;44403;-72
2022/06/10 12:58:49;;;;;;;16.83;3.30;;;22.10;99.90;;;;;;4900344;28;216677;-71
2022/06/10 13:01:18;;;;;;;;;;;22.00;99.90;;;;;;4924774;28;156679;-72
2022/06/10 13:03:46;;;;;;;14.65;3.53;;;21.90;99.90;;;;;;4892388;28;218290;-71
2022/06/10 13:06:32;;;;;;;12.25;3.22;;;21.80;99.90;;;;;;4912306;28;115024;-70
2022/06/10 13:09:10;;;;;;;18.05;3.75;;;21.70;99.90;;;;;;4895904;28;206542;-73
2022/06/10 13:11:36;;;;;;;15.90;3.38;;;21.50;99.90;;;;;;4950791;28;20330;-72
2022/06/10 13:14:16;;;;;;;14.32;3.10;;;21.50;99.90;;;;;;4971799;28;212555;-70
2022/06/10 13:17:00;;;;;;;13.30;3.40;;;21.50;99.90;;;;;;5016466;28;20041;-71